createdAt,value
2022-10-17T00:01:17.234Z,32.40
2022-10-17T00:03:19.620Z,32.83
2022-10-17T00:05:21.364Z,35.35
2022-10-17T00:07:23.106Z,35.35
2022-10-17T00:09:25.228Z,33.72
2022-10-17T00:11:27.088Z,33.65
2022-10-17T00:13:29.019Z,32.22
2022-10-17T00:15:31.090Z,29.73
2022-10-17T00:17:33.070Z,32.20
2022-10-17T00:19:34.777Z,37.50
2022-10-17T00:21:36.781Z,32.22
2022-10-17T00:23:38.461Z,33.28
2022-10-17T00:25:40.143Z,36.33
2022-10-17T00:27:42.233Z,31.60
2022-10-17T00:29:48.642Z,29.45
2022-10-17T00:31:50.406Z,31.13
2022-10-17T00:33:53.218Z,33.55
2022-10-17T00:36:08.936Z,32.77
2022-10-17T00:38:10.658Z,31.83
2022-10-17T00:40:13.119Z,31.73
2022-10-17T00:42:14.916Z,30.45
2022-10-17T00:44:32.036Z,32.13
2022-10-17T00:46:40.318Z,32.65
2022-10-17T00:48:42.530Z,31.02
2022-10-17T00:50:48.057Z,30.20
2022-10-17T00:52:50.614Z,29.52
2022-10-17T00:54:58.484Z,29.08
2022-10-17T00:57:01.301Z,29.63
2022-10-17T00:59:03.817Z,29.57
2022-10-17T01:01:05.661Z,28.05
2022-10-17T01:03:07.447Z,28.83
2022-10-17T01:05:09.967Z,28.10
2022-10-17T01:07:11.741Z,29.80
2022-10-17T01:09:13.654Z,37.28
2022-10-17T01:11:50.662Z,30.08
2022-10-17T01:14:15.003Z,28.92
2022-10-17T01:16:32.337Z,27.63
2022-10-17T01:18:46.737Z,28.92
2022-10-17T01:21:05.596Z,28.60
2022-10-17T01:23:50.706Z,27.92
2022-10-17T01:28:24.224Z,25.63
2022-10-17T01:30:50.490Z,23.27
2022-10-17T01:33:15.668Z,23.30
2022-10-17T01:35:33.609Z,22.40
2022-10-17T01:37:47.080Z,22.92
2022-10-17T01:39:57.341Z,22.45
2022-10-17T01:42:17.093Z,20.30
2022-10-17T01:44:33.613Z,21.65
2022-10-17T01:47:00.391Z,21.65
2022-10-17T01:49:04.102Z,22.67
2022-10-17T01:53:37.471Z,23.52
2022-10-17T01:55:46.077Z,23.95
2022-10-17T01:57:55.223Z,21.27
2022-10-17T01:59:57.449Z,23.95
2022-10-17T02:02:00.629Z,22.30
2022-10-17T02:04:05.042Z,21.83
2022-10-17T02:06:07.869Z,23.00
2022-10-17T02:08:10.129Z,21.93
2022-10-17T02:10:21.316Z,22.55
2022-10-17T02:12:33.933Z,23.23
2022-10-17T02:14:44.673Z,26.98
2022-10-17T02:17:08.174Z,20.42
2022-10-17T02:19:51.047Z,22.67
2022-10-17T02:22:18.683Z,22.90
2022-10-17T02:24:32.415Z,21.15
2022-10-17T02:26:41.340Z,20.42
2022-10-17T02:29:03.512Z,21.58
2022-10-17T02:31:20.234Z,20.40
2022-10-17T02:33:32.771Z,19.77
2022-10-17T02:35:40.269Z,19.17
2022-10-17T02:37:44.313Z,20.05
2022-10-17T02:39:48.498Z,19.50
2022-10-17T02:41:52.908Z,19.48
2022-10-17T02:43:57.646Z,19.95
2022-10-17T02:46:02.055Z,20.65
2022-10-17T02:48:20.520Z,22.75
2022-10-17T02:50:30.314Z,27.15
2022-10-17T02:52:45.753Z,22.95
2022-10-17T02:54:57.562Z,21.73
2022-10-17T02:57:14.191Z,22.20
2022-10-17T02:59:18.954Z,21.83
2022-10-17T03:01:21.321Z,21.52
2022-10-17T03:03:29.043Z,21.02
2022-10-17T03:05:30.756Z,20.60
2022-10-17T03:07:33.048Z,21.05
2022-10-17T03:09:34.777Z,22.58
2022-10-17T03:11:36.657Z,22.63
2022-10-17T03:13:39.864Z,21.42
2022-10-17T03:15:42.118Z,22.02
2022-10-17T03:19:50.916Z,19.88
2022-10-17T03:21:52.671Z,19.85
2022-10-17T03:23:54.491Z,20.25
2022-10-17T03:25:56.351Z,21.52
2022-10-17T03:27:59.528Z,22.08
2022-10-17T03:30:01.521Z,21.45
2022-10-17T03:32:03.641Z,19.65
2022-10-17T03:34:05.484Z,23.92
2022-10-17T03:36:13.747Z,26.45
2022-10-17T03:38:15.735Z,25.25
2022-10-17T03:40:17.609Z,23.83
2022-10-17T03:42:19.354Z,23.05
2022-10-17T03:44:21.095Z,23.15
2022-10-17T03:46:22.801Z,24.33
2022-10-17T03:48:25.079Z,22.33
2022-10-17T03:50:26.977Z,21.25
2022-10-17T03:52:28.702Z,23.00
2022-10-17T03:54:30.616Z,23.15
2022-10-17T03:56:32.426Z,22.77
2022-10-17T03:58:34.111Z,21.67
2022-10-17T04:00:36.795Z,22.67
2022-10-17T04:02:38.784Z,23.10
2022-10-17T04:04:40.473Z,23.88
2022-10-17T04:06:42.231Z,24.92
2022-10-17T04:08:44.112Z,26.00
2022-10-17T04:10:45.789Z,26.15
2022-10-17T04:12:47.715Z,25.10
2022-10-17T04:14:49.591Z,26.30
2022-10-17T04:16:51.315Z,28.13
2022-10-17T04:18:55.278Z,29.33
2022-10-17T04:20:57.257Z,25.80
2022-10-17T04:22:58.929Z,28.60
2022-10-17T04:25:00.646Z,28.83
2022-10-17T04:27:02.662Z,26.95
2022-10-17T04:29:04.362Z,27.92
2022-10-17T04:31:08.393Z,28.00
2022-10-17T04:33:10.281Z,26.33
2022-10-17T04:35:11.988Z,27.35
2022-10-17T04:37:13.940Z,26.27
2022-10-17T04:39:15.708Z,25.02
2022-10-17T04:41:18.654Z,24.85
2022-10-17T04:43:20.763Z,25.50
2022-10-17T04:45:22.521Z,25.83
2022-10-17T04:47:24.355Z,29.23
2022-10-17T04:49:26.174Z,27.10
2022-10-17T04:51:28.011Z,27.15
2022-10-17T04:53:32.419Z,28.95
2022-10-17T04:55:37.853Z,28.60
2022-10-17T04:57:39.666Z,27.48
2022-10-17T04:59:41.370Z,27.17
2022-10-17T05:01:43.190Z,30.88
2022-10-17T05:03:45.604Z,27.23
2022-10-17T05:05:47.508Z,27.27
2022-10-17T05:07:49.424Z,30.92
2022-10-17T05:09:51.200Z,30.15
2022-10-17T05:11:52.863Z,30.50
2022-10-17T05:13:57.384Z,32.42
2022-10-17T05:16:00.805Z,32.42
2022-10-17T05:18:03.223Z,30.45
2022-10-17T05:20:05.868Z,27.40
2022-10-17T05:22:07.718Z,25.33
2022-10-17T05:24:11.509Z,24.45
2022-10-17T05:26:13.795Z,26.05
2022-10-17T05:28:15.613Z,27.35
2022-10-17T05:30:17.905Z,25.40
2022-10-17T05:32:19.599Z,22.42
2022-10-17T05:34:21.315Z,30.00
2022-10-17T05:36:23.053Z,28.35
2022-10-17T05:38:25.174Z,24.75
2022-10-17T05:40:27.057Z,24.60
2022-10-17T05:42:29.128Z,24.60
2022-10-17T05:44:31.674Z,24.00
2022-10-17T05:46:33.585Z,27.08
2022-10-17T05:48:35.948Z,27.60
2022-10-17T05:50:37.682Z,27.20
2022-10-17T05:52:40.028Z,29.33
2022-10-17T05:54:42.259Z,29.50
2022-10-17T05:56:44.137Z,29.20
2022-10-17T05:58:50.935Z,30.55
2022-10-17T06:01:01.855Z,33.28
2022-10-17T06:03:03.942Z,32.53
2022-10-17T06:05:06.090Z,31.90
2022-10-17T06:07:07.807Z,32.10
2022-10-17T06:09:09.887Z,31.85
2022-10-17T06:11:12.659Z,28.90
2022-10-17T06:13:14.519Z,28.50
2022-10-17T06:15:16.444Z,29.35
2022-10-17T06:17:18.330Z,28.25
2022-10-17T06:19:20.061Z,25.88
2022-10-17T06:21:25.079Z,37.05
2022-10-17T06:23:26.941Z,29.13
2022-10-17T06:25:31.357Z,28.33
2022-10-17T06:27:33.156Z,26.73
2022-10-17T06:29:37.322Z,27.13
2022-10-17T06:31:39.033Z,30.30
2022-10-17T06:33:40.917Z,28.95
2022-10-17T06:35:43.200Z,30.20
2022-10-17T06:37:44.934Z,30.02
2022-10-17T06:39:46.668Z,27.67
2022-10-17T06:41:48.603Z,26.08
2022-10-17T06:43:50.277Z,23.63
2022-10-17T06:45:52.104Z,23.63
2022-10-17T06:47:54.096Z,23.65
2022-10-17T06:49:55.817Z,22.75
2022-10-17T06:51:57.730Z,22.30
2022-10-17T06:53:59.485Z,22.52
2022-10-17T06:56:01.428Z,22.08
2022-10-17T06:58:03.348Z,22.70
2022-10-17T07:00:05.895Z,22.98
2022-10-17T07:02:09.788Z,22.95
2022-10-17T07:04:11.699Z,21.80
2022-10-17T07:06:13.464Z,23.33
2022-10-17T07:08:15.148Z,22.67
2022-10-17T07:10:17.037Z,21.98
2022-10-17T07:12:18.943Z,24.05
2022-10-17T07:14:20.692Z,22.48
2022-10-17T07:16:22.608Z,23.42
2022-10-17T07:18:24.418Z,21.52
2022-10-17T07:20:26.109Z,21.98
2022-10-17T07:22:28.039Z,22.20
2022-10-17T07:24:29.991Z,21.38
2022-10-17T07:26:31.679Z,22.98
2022-10-17T07:28:35.332Z,23.40
2022-10-17T07:32:38.711Z,22.30
2022-10-17T07:34:40.519Z,23.17
2022-10-17T07:36:42.269Z,23.15
2022-10-17T07:38:43.996Z,24.70
2022-10-17T07:40:45.803Z,24.05
2022-10-17T07:42:47.516Z,30.02
2022-10-17T07:44:49.227Z,27.40
2022-10-17T07:46:51.099Z,26.25
2022-10-17T07:48:52.820Z,24.98
2022-10-17T07:50:54.529Z,24.58
2022-10-17T07:52:56.499Z,23.10
2022-10-17T07:54:58.536Z,24.63
2022-10-17T07:57:00.347Z,23.35
2022-10-17T07:59:05.114Z,23.38
2022-10-17T08:01:14.901Z,24.05
2022-10-17T08:03:17.575Z,23.58
2022-10-17T08:05:19.431Z,24.27
2022-10-17T08:07:25.551Z,23.00
2022-10-17T08:09:30.975Z,21.33
2022-10-17T08:11:32.809Z,21.25
2022-10-17T08:13:34.860Z,21.20
2022-10-17T08:15:37.814Z,22.08
2022-10-17T08:17:39.725Z,25.42
2022-10-17T08:19:41.666Z,21.35
2022-10-17T08:21:43.394Z,20.80
2022-10-17T08:23:45.388Z,21.20
2022-10-17T08:25:47.162Z,20.63
2022-10-17T08:27:49.776Z,20.17
2022-10-17T08:29:52.235Z,23.95
2022-10-17T08:31:58.690Z,21.92
2022-10-17T08:34:03.180Z,20.15
2022-10-17T08:36:06.403Z,21.30
2022-10-17T08:38:11.019Z,19.90
2022-10-17T08:40:24.998Z,20.05
2022-10-17T08:42:54.099Z,19.33
2022-10-17T08:44:55.844Z,20.00
2022-10-17T08:47:01.805Z,19.55
2022-10-17T08:49:12.103Z,18.85
2022-10-17T08:51:23.074Z,20.50
2022-10-17T08:53:38.593Z,19.05
2022-10-17T08:55:45.277Z,20.73
2022-10-17T08:57:48.477Z,19.48
2022-10-17T08:59:53.556Z,20.00
2022-10-17T09:02:04.370Z,18.98
2022-10-17T09:04:08.819Z,19.42
2022-10-17T09:06:27.554Z,19.42
2022-10-17T09:08:52.257Z,19.67
2022-10-17T09:11:18.928Z,18.17
2022-10-17T09:13:49.660Z,20.20
2022-10-17T09:16:09.664Z,19.15
2022-10-17T09:18:34.439Z,19.48
2022-10-17T09:20:45.674Z,19.60
2022-10-17T09:23:01.254Z,19.00
2022-10-17T09:25:10.291Z,19.10
2022-10-17T09:27:34.569Z,19.27
2022-10-17T09:32:00.334Z,19.27
2022-10-17T09:34:03.268Z,20.13
2022-10-17T09:36:13.595Z,19.23
2022-10-17T09:38:21.121Z,19.13
2022-10-17T09:40:34.196Z,18.85
2022-10-17T09:42:36.898Z,18.73
2022-10-17T09:45:01.599Z,19.43
2022-10-17T09:47:24.550Z,18.58
2022-10-17T09:49:37.792Z,18.55
2022-10-17T09:51:39.742Z,19.45
2022-10-17T09:53:45.217Z,18.35
2022-10-17T09:55:55.205Z,19.08
2022-10-17T09:58:00.369Z,18.70
2022-10-17T10:00:06.967Z,18.73
2022-10-17T10:02:22.968Z,18.42
2022-10-17T10:04:25.847Z,18.65
2022-10-17T10:06:29.309Z,18.65
2022-10-17T10:08:34.675Z,18.95
2022-10-17T10:10:36.525Z,20.30
2022-10-17T10:12:39.308Z,18.90
2022-10-17T10:14:41.627Z,19.35
2022-10-17T10:16:47.889Z,18.83
2022-10-17T10:18:51.315Z,19.77
2022-10-17T10:23:17.411Z,19.92
2022-10-17T10:25:19.313Z,20.15
2022-10-17T10:27:29.488Z,20.65
2022-10-17T10:29:38.539Z,20.58
2022-10-17T10:31:40.793Z,19.60
2022-10-17T10:33:47.009Z,20.35
2022-10-17T10:36:00.338Z,20.75
2022-10-17T10:38:08.159Z,19.38
2022-10-17T10:40:31.047Z,19.27
2022-10-17T10:42:39.350Z,19.50
2022-10-17T10:44:41.332Z,18.55
2022-10-17T10:46:43.317Z,18.67
2022-10-17T10:48:58.024Z,18.50
2022-10-17T10:51:01.285Z,18.67
2022-10-17T10:53:22.210Z,17.88
2022-10-17T10:55:32.602Z,18.65
2022-10-17T10:57:36.938Z,18.90
2022-10-17T10:59:47.415Z,18.58
2022-10-17T11:02:02.469Z,18.95
2022-10-17T11:04:14.920Z,19.00
2022-10-17T11:06:26.409Z,18.52
2022-10-17T11:08:50.299Z,18.95
2022-10-17T11:11:25.796Z,19.02
2022-10-17T11:13:32.900Z,18.13
2022-10-17T11:15:49.618Z,19.17
2022-10-17T11:18:00.675Z,17.50
2022-10-17T11:20:16.794Z,18.90
2022-10-17T11:22:28.196Z,19.52
2022-10-17T11:24:43.395Z,18.70
2022-10-17T11:26:59.057Z,19.15
2022-10-17T11:29:04.661Z,18.38
2022-10-17T11:31:10.304Z,19.35
2022-10-17T11:33:19.015Z,19.55
2022-10-17T11:35:26.896Z,18.85
2022-10-17T11:37:38.897Z,19.00
2022-10-17T11:39:49.260Z,21.55
2022-10-17T11:42:10.061Z,19.90
2022-10-17T11:44:29.578Z,19.40
2022-10-17T11:46:35.148Z,18.02
2022-10-17T11:48:46.087Z,17.27
2022-10-17T11:53:20.619Z,17.15
2022-10-17T11:55:26.040Z,15.70
2022-10-17T11:57:52.704Z,17.30
2022-10-17T12:00:13.370Z,16.77
2022-10-17T12:02:35.626Z,16.55
2022-10-17T12:05:04.947Z,16.83
2022-10-17T12:07:19.069Z,17.50
2022-10-17T12:09:40.548Z,15.70
2022-10-17T12:12:00.250Z,16.45
2022-10-17T12:14:05.841Z,16.65
2022-10-17T12:16:20.230Z,15.38
2022-10-17T12:18:25.749Z,15.50
2022-10-17T12:20:34.592Z,15.73
2022-10-17T12:22:36.414Z,15.27
2022-10-17T12:24:52.830Z,15.30
2022-10-17T12:26:57.022Z,15.05
2022-10-17T12:28:59.522Z,15.48
2022-10-17T12:31:23.878Z,15.93
2022-10-17T12:35:28.893Z,15.38
2022-10-17T12:37:45.912Z,15.73
2022-10-17T12:39:47.788Z,16.55
2022-10-17T12:41:49.516Z,16.10
2022-10-17T12:43:54.855Z,15.23
2022-10-17T12:46:04.742Z,14.98
2022-10-17T12:48:10.014Z,14.70
2022-10-17T12:50:49.323Z,15.32
2022-10-17T12:52:59.963Z,15.48
2022-10-17T12:55:13.415Z,15.65
2022-10-17T12:59:28.953Z,15.70
2022-10-17T13:01:36.952Z,14.65
2022-10-17T13:03:44.202Z,15.70
2022-10-17T13:05:51.049Z,15.95
2022-10-17T13:07:54.579Z,16.98
2022-10-17T13:12:01.615Z,15.80
2022-10-17T13:14:12.658Z,20.67
2022-10-17T13:16:29.462Z,17.25
2022-10-17T13:18:31.474Z,16.27
2022-10-17T13:20:33.459Z,17.05
2022-10-17T13:22:35.290Z,19.48
2022-10-17T13:24:41.908Z,16.05
2022-10-17T13:26:46.261Z,15.10
2022-10-17T13:29:14.034Z,16.17
2022-10-17T13:31:51.681Z,16.35
2022-10-17T13:33:58.058Z,16.27
2022-10-17T13:36:02.581Z,15.77
2022-10-17T13:38:06.825Z,15.48
2022-10-17T13:42:42.219Z,15.35
2022-10-17T13:44:44.582Z,16.27
2022-10-17T13:46:47.129Z,15.77
2022-10-17T13:48:48.918Z,16.33
2022-10-17T13:50:56.392Z,16.90
2022-10-17T13:53:20.518Z,15.77
2022-10-17T13:55:22.237Z,15.45
2022-10-17T13:57:25.393Z,15.75
2022-10-17T13:59:39.105Z,15.65
2022-10-17T14:01:40.897Z,14.95
2022-10-17T14:03:48.900Z,16.67
2022-10-17T14:06:12.395Z,18.30
2022-10-17T14:08:21.655Z,16.48
2022-10-17T14:10:36.806Z,15.90
2022-10-17T14:12:42.953Z,16.00
2022-10-17T14:15:09.868Z,15.45
2022-10-17T14:17:25.852Z,15.90
2022-10-17T14:19:33.401Z,16.10
2022-10-17T14:21:43.859Z,15.93
2022-10-17T14:23:46.360Z,16.05
2022-10-17T14:25:48.105Z,15.52
2022-10-17T14:28:01.228Z,15.63
2022-10-17T14:30:51.775Z,17.10
2022-10-17T14:32:49.472Z,16.35
2022-10-17T14:35:05.625Z,16.40
2022-10-17T14:37:24.375Z,16.65
2022-10-17T14:39:27.882Z,16.95
2022-10-17T14:43:58.846Z,16.23
2022-10-17T14:46:01.459Z,16.23
2022-10-17T14:48:24.015Z,16.50
2022-10-17T14:50:28.501Z,16.17
2022-10-17T14:52:31.952Z,16.90
2022-10-17T14:54:36.302Z,17.13
2022-10-17T14:56:42.446Z,16.23
2022-10-17T14:58:44.232Z,16.30
2022-10-17T15:00:45.959Z,16.50
2022-10-17T15:02:49.121Z,16.42
2022-10-17T15:04:50.924Z,17.38
2022-10-17T15:06:55.706Z,17.13
2022-10-17T15:08:58.059Z,16.13
2022-10-17T15:10:59.816Z,16.67
2022-10-17T15:15:24.516Z,17.17
2022-10-17T15:17:31.580Z,16.85
2022-10-17T15:19:33.373Z,17.40
2022-10-17T15:21:39.531Z,17.50
2022-10-17T15:23:45.148Z,19.00
2022-10-17T15:25:46.869Z,26.98
2022-10-17T15:27:48.965Z,30.67
2022-10-17T15:29:51.475Z,57.10
2022-10-17T15:31:53.422Z,38.72
2022-10-17T15:33:55.316Z,46.70
2022-10-17T15:37:59.754Z,41.20
2022-10-17T15:40:01.585Z,56.60
2022-10-17T15:42:08.537Z,114.13
2022-10-17T15:44:10.422Z,89.50
2022-10-17T15:46:14.684Z,99.10
2022-10-17T15:48:23.617Z,60.95
2022-10-17T15:50:25.422Z,74.57
2022-10-17T15:52:28.027Z,49.70
2022-10-17T15:54:29.835Z,44.55
2022-10-17T15:56:34.664Z,44.25
2022-10-17T15:58:39.569Z,42.40
2022-10-17T16:00:41.919Z,46.63
2022-10-17T16:02:44.215Z,49.70
2022-10-17T16:04:47.482Z,62.70
2022-10-17T16:06:49.277Z,76.28
2022-10-17T16:08:51.647Z,66.03
2022-10-17T16:10:53.743Z,61.63
2022-10-17T16:12:55.661Z,51.95
2022-10-17T16:14:57.379Z,52.20
2022-10-17T16:17:00.170Z,50.83
2022-10-17T16:19:02.588Z,51.05
2022-10-17T16:21:04.464Z,48.65
2022-10-17T16:23:06.467Z,51.58
2022-10-17T16:25:21.628Z,55.03
2022-10-17T16:27:23.326Z,49.15
2022-10-17T16:29:25.180Z,38.20
2022-10-17T16:31:30.386Z,36.67
2022-10-17T16:33:32.689Z,42.47
2022-10-17T16:35:36.793Z,49.45
2022-10-17T16:37:39.411Z,45.88
2022-10-17T16:39:41.097Z,44.00
2022-10-17T16:41:42.970Z,37.30
2022-10-17T16:43:44.770Z,46.92
2022-10-17T16:45:46.457Z,68.07
2022-10-17T16:47:48.881Z,48.65
2022-10-17T16:49:50.717Z,47.60
2022-10-17T16:51:52.427Z,45.50
2022-10-17T16:53:55.701Z,42.88
2022-10-17T16:56:04.583Z,51.25
2022-10-17T16:58:06.346Z,54.13
2022-10-17T17:00:08.853Z,67.28
2022-10-17T17:02:11.990Z,54.90
2022-10-17T17:04:13.863Z,50.92
2022-10-17T17:06:21.512Z,50.20
2022-10-17T17:08:23.779Z,37.60
2022-10-17T17:10:25.510Z,47.10
2022-10-17T17:12:27.264Z,44.92
2022-10-17T17:14:29.031Z,48.75
2022-10-17T17:16:32.486Z,51.10
2022-10-17T17:18:35.009Z,53.53
2022-10-17T17:20:36.756Z,46.58
2022-10-17T17:22:38.551Z,50.35
2022-10-17T17:24:40.386Z,49.72
2022-10-17T17:26:42.190Z,46.47
2022-10-17T17:28:44.171Z,41.35
2022-10-17T17:30:45.927Z,38.92
2022-10-17T17:32:47.736Z,36.83
2022-10-17T17:34:49.461Z,35.95
2022-10-17T17:36:51.345Z,39.20
2022-10-17T17:39:00.837Z,33.85
2022-10-17T17:41:06.737Z,41.13
2022-10-17T17:43:08.527Z,62.13
2022-10-17T17:45:10.914Z,49.03
2022-10-17T17:47:12.638Z,56.50
2022-10-17T17:49:14.665Z,53.33
2022-10-17T17:51:19.001Z,62.08
2022-10-17T17:53:20.751Z,64.07
2022-10-17T17:55:22.580Z,76.93
2022-10-17T17:57:24.359Z,75.00
2022-10-17T17:59:26.077Z,79.43
2022-10-17T18:01:30.572Z,64.35
2022-10-17T18:03:32.447Z,56.25
2022-10-17T18:05:34.293Z,55.60
2022-10-17T18:07:37.567Z,64.57
2022-10-17T18:09:39.247Z,60.22
2022-10-17T18:11:41.034Z,55.60
2022-10-17T18:13:43.205Z,53.10
2022-10-17T18:15:45.062Z,52.25
2022-10-17T18:17:46.934Z,48.83
2022-10-17T18:19:49.661Z,47.42
2022-10-17T18:21:51.448Z,48.83
2022-10-17T18:23:53.568Z,39.80
2022-10-17T18:25:56.983Z,42.70
2022-10-17T18:27:58.694Z,35.47
2022-10-17T18:30:00.390Z,39.80
2022-10-17T18:32:02.125Z,49.13
2022-10-17T18:34:05.012Z,41.92
2022-10-17T18:36:10.318Z,46.88
2022-10-17T18:38:12.213Z,55.30
2022-10-17T18:40:13.894Z,58.60
2022-10-17T18:42:15.650Z,48.83
2022-10-17T18:44:17.474Z,47.45
2022-10-17T18:46:21.875Z,40.85
2022-10-17T18:48:23.600Z,41.75
2022-10-17T18:50:25.805Z,42.63
2022-10-17T18:52:27.609Z,47.65
2022-10-17T18:54:29.357Z,48.75
2022-10-17T18:56:31.747Z,48.88
2022-10-17T18:58:33.549Z,46.40
2022-10-17T19:00:35.279Z,47.08
2022-10-17T19:02:38.062Z,40.33
2022-10-17T19:04:40.009Z,67.75
2022-10-17T19:06:42.759Z,42.58
2022-10-17T19:08:45.681Z,41.78
2022-10-17T19:10:47.406Z,44.38
2022-10-17T19:12:49.121Z,46.92
2022-10-17T19:14:50.870Z,48.58
2022-10-17T19:16:52.616Z,50.22
2022-10-17T19:19:02.042Z,84.18
2022-10-17T19:21:11.777Z,44.00
2022-10-17T19:23:13.537Z,153.15
2022-10-17T19:25:15.313Z,270.65
2022-10-17T19:27:17.166Z,160.48
2022-10-17T19:29:20.308Z,53.90
2022-10-17T19:31:26.961Z,48.92
2022-10-17T19:35:35.810Z,45.53
2022-10-17T19:37:37.934Z,41.97
2022-10-17T19:39:39.786Z,39.67
2022-10-17T19:41:44.062Z,42.05
2022-10-17T19:43:45.849Z,51.10
2022-10-17T19:46:12.018Z,41.00
2022-10-17T19:48:13.788Z,37.85
2022-10-17T19:50:15.598Z,38.92
2022-10-17T19:52:17.348Z,38.60
2022-10-17T19:54:19.129Z,38.72
2022-10-17T19:56:22.059Z,49.95
2022-10-17T19:58:25.121Z,38.35
2022-10-17T20:00:27.115Z,39.90
2022-10-17T20:02:29.138Z,40.92
2022-10-17T20:04:31.373Z,39.65
2022-10-17T20:06:33.752Z,37.83
2022-10-17T20:08:35.951Z,37.72
2022-10-17T20:10:37.702Z,40.15
2022-10-17T20:12:39.406Z,40.75
2022-10-17T20:14:41.316Z,37.55
2022-10-17T20:16:43.450Z,38.83
2022-10-17T20:18:45.360Z,42.40
2022-10-17T20:20:47.088Z,43.58
2022-10-17T20:22:48.916Z,38.78
2022-10-17T20:24:50.831Z,50.50
2022-10-17T20:26:52.600Z,37.55
2022-10-17T20:28:54.710Z,37.00
2022-10-17T20:30:56.656Z,37.33
2022-10-17T20:32:58.377Z,41.10
2022-10-17T20:35:00.847Z,38.05
2022-10-17T20:37:02.971Z,46.25
2022-10-17T20:39:05.763Z,38.10
2022-10-17T20:41:10.154Z,38.75
2022-10-17T20:43:13.043Z,36.22
2022-10-17T20:45:14.748Z,33.03
2022-10-17T20:47:33.152Z,30.10
2022-10-17T20:49:38.530Z,29.48
2022-10-17T20:51:40.307Z,29.02
2022-10-17T20:53:42.289Z,29.67
2022-10-17T20:55:44.206Z,32.13
2022-10-17T20:57:45.901Z,33.03
2022-10-17T20:59:47.695Z,33.53
2022-10-17T21:01:49.438Z,34.22
2022-10-17T21:03:52.755Z,32.67
2022-10-17T21:05:54.645Z,31.05
2022-10-17T21:07:56.464Z,30.67
2022-10-17T21:10:07.620Z,34.00
2022-10-17T21:12:30.912Z,35.30
2022-10-17T21:14:41.836Z,36.17
2022-10-17T21:16:43.565Z,36.15
2022-10-17T21:18:46.119Z,32.97
2022-10-17T21:20:47.985Z,33.63
2022-10-17T21:22:49.666Z,39.88
2022-10-17T21:24:51.697Z,39.17
2022-10-17T21:26:53.388Z,30.02
2022-10-17T21:28:55.255Z,28.13
2022-10-17T21:31:11.068Z,26.90
2022-10-17T21:33:12.754Z,27.05
2022-10-17T21:35:14.570Z,27.65
2022-10-17T21:37:16.792Z,29.23
2022-10-17T21:39:18.912Z,27.77
2022-10-17T21:41:23.829Z,32.10
2022-10-17T21:43:25.656Z,30.27
2022-10-17T21:45:27.339Z,29.80
2022-10-17T21:47:29.047Z,30.27
2022-10-17T21:49:30.893Z,37.25
2022-10-17T21:51:32.652Z,35.85
2022-10-17T21:53:35.194Z,35.05
2022-10-17T21:55:37.497Z,38.80
2022-10-17T21:57:39.227Z,36.70
2022-10-17T21:59:40.897Z,38.90
2022-10-17T22:01:45.789Z,39.35
2022-10-17T22:03:51.189Z,39.70
2022-10-17T22:06:06.912Z,30.90
2022-10-17T22:08:16.625Z,35.60
2022-10-17T22:10:18.313Z,32.03
2022-10-17T22:12:20.028Z,35.08
2022-10-17T22:14:23.490Z,29.38
2022-10-17T22:16:26.331Z,26.55
2022-10-17T22:18:28.509Z,32.15
2022-10-17T22:20:30.284Z,42.03
2022-10-17T22:22:31.997Z,27.23
2022-10-17T22:24:33.810Z,30.27
2022-10-17T22:26:37.422Z,29.20
2022-10-17T22:30:42.256Z,27.58
2022-10-17T22:32:44.166Z,28.27
2022-10-17T22:34:47.120Z,24.58
2022-10-17T22:36:49.632Z,24.00
2022-10-17T22:38:51.555Z,26.17
2022-10-17T22:40:53.297Z,26.92
2022-10-17T22:42:55.004Z,25.10
2022-10-17T22:44:57.041Z,23.55
2022-10-17T22:46:58.798Z,24.90
2022-10-17T22:49:00.595Z,24.27
2022-10-17T22:51:02.533Z,21.75
2022-10-17T22:53:04.256Z,20.88
2022-10-17T22:55:06.731Z,25.83
2022-10-17T22:57:08.794Z,23.08
2022-10-17T22:59:10.475Z,21.92
2022-10-17T23:01:17.689Z,22.58
2022-10-17T23:03:21.229Z,23.38
2022-10-17T23:05:22.903Z,25.83
2022-10-17T23:07:25.229Z,24.50
2022-10-17T23:11:33.810Z,27.23
2022-10-17T23:13:36.035Z,20.77
2022-10-17T23:15:38.103Z,21.08
2022-10-17T23:17:39.769Z,19.92
2022-10-17T23:19:41.634Z,22.40
2022-10-17T23:21:43.756Z,40.15
2022-10-17T23:23:45.489Z,28.25
2022-10-17T23:25:47.764Z,35.03
2022-10-17T23:27:49.537Z,51.13
2022-10-17T23:29:51.259Z,41.60
2022-10-17T23:31:56.020Z,42.92
2022-10-17T23:33:58.596Z,43.13
2022-10-17T23:36:04.671Z,36.05
2022-10-17T23:38:06.440Z,37.53
2022-10-17T23:40:09.055Z,34.75
2022-10-17T23:42:10.765Z,35.42
2022-10-17T23:44:12.689Z,33.97
2022-10-17T23:46:14.773Z,27.20
2022-10-17T23:48:16.458Z,29.75
2022-10-17T23:50:18.416Z,26.08
2022-10-17T23:52:20.141Z,25.25
2022-10-17T23:54:21.882Z,23.15
2022-10-17T23:56:23.733Z,19.83
2022-10-17T23:58:25.699Z,22.27
